sensor_id;sensor_type;location;lat;lon;timestamp;P1;durP1;ratioP1;P2;durP2;ratioP2
52188;SDS011;38162;45.926;13.608;2023-05-10T00:01:05;3.25;;;1.58;;
52188;SDS011;38162;45.926;13.608;2023-05-10T00:03:31;3.55;;;1.50;;
52188;SDS011;38162;45.926;13.608;2023-05-10T00:05:57;2.17;;;1.42;;
52188;SDS011;38162;45.926;13.608;2023-05-10T00:08:22;3.10;;;1.77;;
52188;SDS011;38162;45.926;13.608;2023-05-10T00:10:48;2.78;;;1.42;;
52188;SDS011;38162;45.926;13.608;2023-05-10T00:13:14;2.22;;;1.40;;
52188;SDS011;38162;45.926;13.608;2023-05-10T00:15:40;2.63;;;1.58;;
52188;SDS011;38162;45.926;13.608;2023-05-10T00:18:06;2.67;;;1.38;;
52188;SDS011;38162;45.926;13.608;2023-05-10T00:20:32;2.92;;;1.48;;
52188;SDS011;38162;45.926;13.608;2023-05-10T00:22:58;3.28;;;1.50;;
52188;SDS011;38162;45.926;13.608;2023-05-10T00:25:23;5.65;;;1.80;;
52188;SDS011;38162;45.926;13.608;2023-05-10T00:27:49;3.78;;;1.70;;
52188;SDS011;38162;45.926;13.608;2023-05-10T00:30:15;2.90;;;1.58;;
52188;SDS011;38162;45.926;13.608;2023-05-10T00:32:41;4.25;;;1.88;;
52188;SDS011;38162;45.926;13.608;2023-05-10T00:35:07;2.85;;;1.33;;
52188;SDS011;38162;45.926;13.608;2023-05-10T00:37:33;4.38;;;1.80;;
52188;SDS011;38162;45.926;13.608;2023-05-10T00:39:58;4.47;;;1.80;;
52188;SDS011;38162;45.926;13.608;2023-05-10T00:42:24;2.45;;;1.70;;
52188;SDS011;38162;45.926;13.608;2023-05-10T00:44:50;2.78;;;1.70;;
52188;SDS011;38162;45.926;13.608;2023-05-10T00:47:16;2.42;;;1.60;;
52188;SDS011;38162;45.926;13.608;2023-05-10T00:49:42;2.13;;;1.60;;
52188;SDS011;38162;45.926;13.608;2023-05-10T00:52:09;2.40;;;1.60;;
52188;SDS011;38162;45.926;13.608;2023-05-10T00:54:35;3.03;;;1.80;;
52188;SDS011;38162;45.926;13.608;2023-05-10T00:57:01;3.08;;;1.50;;
52188;SDS011;38162;45.926;13.608;2023-05-10T00:59:28;2.15;;;1.60;;
52188;SDS011;38162;45.926;13.608;2023-05-10T01:01:54;4.43;;;1.77;;
52188;SDS011;38162;45.926;13.608;2023-05-10T01:04:20;4.60;;;1.58;;
52188;SDS011;38162;45.926;13.608;2023-05-10T01:06:50;7.38;;;2.20;;
52188;SDS011;38162;45.926;13.608;2023-05-10T01:09:17;4.70;;;1.88;;
52188;SDS011;38162;45.926;13.608;2023-05-10T01:11:44;6.55;;;1.85;;
52188;SDS011;38162;45.926;13.608;2023-05-10T01:14:10;3.10;;;1.58;;
52188;SDS011;38162;45.926;13.608;2023-05-10T01:16:37;2.60;;;1.63;;
52188;SDS011;38162;45.926;13.608;2023-05-10T01:19:11;4.32;;;2.13;;
52188;SDS011;38162;45.926;13.608;2023-05-10T01:24:49;3.00;;;1.55;;
52188;SDS011;38162;45.926;13.608;2023-05-10T01:33:47;2.78;;;1.60;;
52188;SDS011;38162;45.926;13.608;2023-05-10T01:44:20;10.07;;;2.50;;
52188;SDS011;38162;45.926;13.608;2023-05-10T01:47:28;8.55;;;2.17;;
52188;SDS011;38162;45.926;13.608;2023-05-10T01:49:47;4.90;;;2.00;;
52188;SDS011;38162;45.926;13.608;2023-05-10T01:52:17;5.35;;;1.83;;
52188;SDS011;38162;45.926;13.608;2023-05-10T01:54:53;8.38;;;2.45;;
52188;SDS011;38162;45.926;13.608;2023-05-10T01:57:25;9.00;;;2.20;;
52188;SDS011;38162;45.926;13.608;2023-05-10T01:59:55;4.85;;;1.70;;
52188;SDS011;38162;45.926;13.608;2023-05-10T02:02:22;6.43;;;1.92;;
52188;SDS011;38162;45.926;13.608;2023-05-10T02:04:51;3.00;;;2.10;;
52188;SDS011;38162;45.926;13.608;2023-05-10T02:07:19;3.60;;;1.98;;
52188;SDS011;38162;45.926;13.608;2023-05-10T02:09:46;8.00;;;2.10;;
52188;SDS011;38162;45.926;13.608;2023-05-10T02:12:13;4.45;;;2.00;;
52188;SDS011;38162;45.926;13.608;2023-05-10T02:14:40;3.90;;;2.10;;
52188;SDS011;38162;45.926;13.608;2023-05-10T02:17:07;3.60;;;2.03;;
52188;SDS011;38162;45.926;13.608;2023-05-10T02:19:35;7.32;;;2.30;;
52188;SDS011;38162;45.926;13.608;2023-05-10T02:22:04;5.65;;;2.15;;
52188;SDS011;38162;45.926;13.608;2023-05-10T02:24:30;4.15;;;2.00;;
52188;SDS011;38162;45.926;13.608;2023-05-10T02:26:58;5.40;;;2.10;;
52188;SDS011;38162;45.926;13.608;2023-05-10T02:29:26;3.00;;;2.08;;
52188;SDS011;38162;45.926;13.608;2023-05-10T02:31:53;7.47;;;2.70;;
52188;SDS011;38162;45.926;13.608;2023-05-10T02:34:23;4.43;;;1.98;;
52188;SDS011;38162;45.926;13.608;2023-05-10T02:36:52;4.73;;;1.90;;
52188;SDS011;38162;45.926;13.608;2023-05-10T02:39:19;5.15;;;2.05;;
52188;SDS011;38162;45.926;13.608;2023-05-10T02:41:45;2.80;;;2.03;;
52188;SDS011;38162;45.926;13.608;2023-05-10T02:44:14;5.40;;;2.40;;
52188;SDS011;38162;45.926;13.608;2023-05-10T02:46:44;4.80;;;1.90;;
52188;SDS011;38162;45.926;13.608;2023-05-10T02:49:13;4.45;;;2.28;;
52188;SDS011;38162;45.926;13.608;2023-05-10T03:08:32;3.65;;;2.20;;
52188;SDS011;38162;45.926;13.608;2023-05-10T03:19:16;3.50;;;2.33;;
52188;SDS011;38162;45.926;13.608;2023-05-10T03:22:03;3.35;;;1.95;;
52188;SDS011;38162;45.926;13.608;2023-05-10T03:24:34;5.50;;;2.30;;
52188;SDS011;38162;45.926;13.608;2023-05-10T03:27:02;4.05;;;2.22;;
52188;SDS011;38162;45.926;13.608;2023-05-10T03:29:30;3.78;;;2.35;;
52188;SDS011;38162;45.926;13.608;2023-05-10T03:31:59;3.90;;;2.30;;
52188;SDS011;38162;45.926;13.608;2023-05-10T03:34:26;10.25;;;2.42;;
52188;SDS011;38162;45.926;13.608;2023-05-10T03:36:55;7.03;;;2.17;;
52188;SDS011;38162;45.926;13.608;2023-05-10T03:39:20;3.58;;;2.13;;
52188;SDS011;38162;45.926;13.608;2023-05-10T03:41:46;4.25;;;2.53;;
52188;SDS011;38162;45.926;13.608;2023-05-10T03:44:12;5.88;;;2.20;;
52188;SDS011;38162;45.926;13.608;2023-05-10T03:46:38;4.93;;;2.13;;
52188;SDS011;38162;45.926;13.608;2023-05-10T03:49:04;2.72;;;2.17;;
52188;SDS011;38162;45.926;13.608;2023-05-10T03:51:29;4.35;;;2.40;;
52188;SDS011;38162;45.926;13.608;2023-05-10T03:53:56;6.60;;;2.50;;
52188;SDS011;38162;45.926;13.608;2023-05-10T03:56:22;5.90;;;2.30;;
52188;SDS011;38162;45.926;13.608;2023-05-10T03:58:47;4.55;;;2.45;;
52188;SDS011;38162;45.926;13.608;2023-05-10T04:01:13;3.88;;;2.35;;
52188;SDS011;38162;45.926;13.608;2023-05-10T04:03:39;3.88;;;2.10;;
52188;SDS011;38162;45.926;13.608;2023-05-10T04:06:05;5.10;;;2.30;;
52188;SDS011;38162;45.926;13.608;2023-05-10T04:08:33;7.20;;;2.42;;
52188;SDS011;38162;45.926;13.608;2023-05-10T04:11:08;2.90;;;2.10;;
52188;SDS011;38162;45.926;13.608;2023-05-10T04:13:35;5.05;;;2.45;;
52188;SDS011;38162;45.926;13.608;2023-05-10T04:16:01;6.28;;;2.40;;
52188;SDS011;38162;45.926;13.608;2023-05-10T04:18:27;2.80;;;1.83;;
52188;SDS011;38162;45.926;13.608;2023-05-10T04:20:53;5.28;;;2.28;;
52188;SDS011;38162;45.926;13.608;2023-05-10T04:23:18;3.22;;;2.30;;
52188;SDS011;38162;45.926;13.608;2023-05-10T04:25:44;6.72;;;2.20;;
52188;SDS011;38162;45.926;13.608;2023-05-10T04:28:10;6.03;;;2.50;;
52188;SDS011;38162;45.926;13.608;2023-05-10T04:30:36;8.13;;;2.30;;
52188;SDS011;38162;45.926;13.608;2023-05-10T04:33:02;6.10;;;2.58;;
52188;SDS011;38162;45.926;13.608;2023-05-10T04:35:34;5.38;;;2.63;;
52188;SDS011;38162;45.926;13.608;2023-05-10T04:38:10;6.47;;;2.33;;
52188;SDS011;38162;45.926;13.608;2023-05-10T04:44:40;3.35;;;2.20;;
52188;SDS011;38162;45.926;13.608;2023-05-10T04:51:50;3.28;;;2.00;;
52188;SDS011;38162;45.926;13.608;2023-05-10T04:58:16;3.25;;;2.20;;
52188;SDS011;38162;45.926;13.608;2023-05-10T05:01:12;3.92;;;2.50;;
52188;SDS011;38162;45.926;13.608;2023-05-10T05:04:04;7.85;;;2.38;;
52188;SDS011;38162;45.926;13.608;2023-05-10T05:06:32;4.82;;;2.20;;
52188;SDS011;38162;45.926;13.608;2023-05-10T05:08:58;6.15;;;2.45;;
52188;SDS011;38162;45.926;13.608;2023-05-10T05:11:24;3.30;;;2.58;;
52188;SDS011;38162;45.926;13.608;2023-05-10T05:13:50;6.80;;;2.20;;
52188;SDS011;38162;45.926;13.608;2023-05-10T05:16:16;3.55;;;2.22;;
52188;SDS011;38162;45.926;13.608;2023-05-10T05:18:42;4.03;;;2.40;;
52188;SDS011;38162;45.926;13.608;2023-05-10T05:21:17;3.33;;;2.60;;
52188;SDS011;38162;45.926;13.608;2023-05-10T05:23:44;9.40;;;2.63;;
52188;SDS011;38162;45.926;13.608;2023-05-10T05:26:10;6.15;;;2.63;;
52188;SDS011;38162;45.926;13.608;2023-05-10T05:28:36;3.17;;;2.50;;
52188;SDS011;38162;45.926;13.608;2023-05-10T05:31:06;3.28;;;2.30;;
52188;SDS011;38162;45.926;13.608;2023-05-10T05:33:35;3.60;;;2.30;;
52188;SDS011;38162;45.926;13.608;2023-05-10T05:36:01;4.80;;;2.60;;
52188;SDS011;38162;45.926;13.608;2023-05-10T05:38:28;5.55;;;2.40;;
52188;SDS011;38162;45.926;13.608;2023-05-10T05:40:54;8.23;;;2.60;;
52188;SDS011;38162;45.926;13.608;2023-05-10T05:43:20;2.75;;;2.25;;
52188;SDS011;38162;45.926;13.608;2023-05-10T05:45:45;4.47;;;2.45;;
52188;SDS011;38162;45.926;13.608;2023-05-10T05:48:11;4.90;;;2.65;;
52188;SDS011;38162;45.926;13.608;2023-05-10T05:50:37;7.68;;;2.58;;
52188;SDS011;38162;45.926;13.608;2023-05-10T05:53:03;7.15;;;3.17;;
52188;SDS011;38162;45.926;13.608;2023-05-10T05:55:28;3.72;;;2.58;;
52188;SDS011;38162;45.926;13.608;2023-05-10T05:57:56;7.40;;;2.70;;
52188;SDS011;38162;45.926;13.608;2023-05-10T06:00:22;7.43;;;2.70;;
52188;SDS011;38162;45.926;13.608;2023-05-10T06:02:48;17.27;;;4.43;;
52188;SDS011;38162;45.926;13.608;2023-05-10T06:05:14;32.78;;;5.57;;
52188;SDS011;38162;45.926;13.608;2023-05-10T06:07:40;17.05;;;6.25;;
52188;SDS011;38162;45.926;13.608;2023-05-10T06:10:07;17.67;;;6.43;;
52188;SDS011;38162;45.926;13.608;2023-05-10T06:12:34;18.90;;;6.57;;
52188;SDS011;38162;45.926;13.608;2023-05-10T06:15:00;13.50;;;5.90;;
52188;SDS011;38162;45.926;13.608;2023-05-10T06:17:26;14.80;;;5.43;;
52188;SDS011;38162;45.926;13.608;2023-05-10T06:19:52;16.23;;;5.32;;
52188;SDS011;38162;45.926;13.608;2023-05-10T06:22:18;12.35;;;3.58;;
52188;SDS011;38162;45.926;13.608;2023-05-10T06:25:08;19.67;;;4.60;;
52188;SDS011;38162;45.926;13.608;2023-05-10T06:27:43;5.97;;;3.33;;
52188;SDS011;38162;45.926;13.608;2023-05-10T06:30:40;8.70;;;3.30;;
52188;SDS011;38162;45.926;13.608;2023-05-10T06:33:15;7.93;;;3.10;;
52188;SDS011;38162;45.926;13.608;2023-05-10T06:39:04;10.45;;;3.25;;
52188;SDS011;38162;45.926;13.608;2023-05-10T06:41:55;9.43;;;3.20;;
52188;SDS011;38162;45.926;13.608;2023-05-10T06:48:08;9.68;;;3.50;;
52188;SDS011;38162;45.926;13.608;2023-05-10T06:50:53;7.28;;;3.40;;
52188;SDS011;38162;45.926;13.608;2023-05-10T06:53:19;7.38;;;3.28;;
52188;SDS011;38162;45.926;13.608;2023-05-10T06:55:45;5.78;;;3.10;;
52188;SDS011;38162;45.926;13.608;2023-05-10T06:58:11;8.68;;;3.33;;
52188;SDS011;38162;45.926;13.608;2023-05-10T07:00:37;6.40;;;3.00;;
52188;SDS011;38162;45.926;13.608;2023-05-10T07:03:05;4.55;;;3.15;;
52188;SDS011;38162;45.926;13.608;2023-05-10T07:05:31;10.02;;;3.08;;
52188;SDS011;38162;45.926;13.608;2023-05-10T07:07:57;7.60;;;3.50;;
52188;SDS011;38162;45.926;13.608;2023-05-10T07:10:23;5.68;;;3.38;;
52188;SDS011;38162;45.926;13.608;2023-05-10T07:12:49;6.82;;;3.22;;
52188;SDS011;38162;45.926;13.608;2023-05-10T07:15:15;6.88;;;3.30;;
52188;SDS011;38162;45.926;13.608;2023-05-10T07:17:40;8.18;;;3.75;;
52188;SDS011;38162;45.926;13.608;2023-05-10T07:20:06;5.05;;;3.38;;
52188;SDS011;38162;45.926;13.608;2023-05-10T07:22:33;6.05;;;3.55;;
52188;SDS011;38162;45.926;13.608;2023-05-10T07:24:58;7.88;;;3.45;;
52188;SDS011;38162;45.926;13.608;2023-05-10T07:27:24;6.18;;;3.63;;
52188;SDS011;38162;45.926;13.608;2023-05-10T07:29:50;7.32;;;3.88;;
52188;SDS011;38162;45.926;13.608;2023-05-10T07:32:16;7.55;;;3.15;;
52188;SDS011;38162;45.926;13.608;2023-05-10T07:34:42;6.63;;;3.70;;
52188;SDS011;38162;45.926;13.608;2023-05-10T07:37:08;9.38;;;3.00;;
52188;SDS011;38162;45.926;13.608;2023-05-10T07:39:33;6.72;;;3.17;;
52188;SDS011;38162;45.926;13.608;2023-05-10T07:41:59;9.13;;;3.40;;
52188;SDS011;38162;45.926;13.608;2023-05-10T07:44:25;7.78;;;3.92;;
52188;SDS011;38162;45.926;13.608;2023-05-10T07:46:51;3.97;;;3.15;;
52188;SDS011;38162;45.926;13.608;2023-05-10T07:49:17;6.50;;;3.50;;
52188;SDS011;38162;45.926;13.608;2023-05-10T07:51:43;4.97;;;3.38;;
52188;SDS011;38162;45.926;13.608;2023-05-10T07:54:08;4.05;;;3.00;;
52188;SDS011;38162;45.926;13.608;2023-05-10T07:56:34;7.28;;;3.35;;
52188;SDS011;38162;45.926;13.608;2023-05-10T07:59:01;7.22;;;3.60;;
52188;SDS011;38162;45.926;13.608;2023-05-10T08:01:32;5.65;;;3.33;;
52188;SDS011;38162;45.926;13.608;2023-05-10T08:03:59;5.35;;;3.17;;
52188;SDS011;38162;45.926;13.608;2023-05-10T08:06:26;4.65;;;2.90;;
52188;SDS011;38162;45.926;13.608;2023-05-10T08:08:54;4.90;;;3.47;;
52188;SDS011;38162;45.926;13.608;2023-05-10T08:11:21;4.63;;;3.03;;
52188;SDS011;38162;45.926;13.608;2023-05-10T08:14:08;8.00;;;3.20;;
52188;SDS011;38162;45.926;13.608;2023-05-10T08:16:49;4.63;;;3.35;;
52188;SDS011;38162;45.926;13.608;2023-05-10T08:19:30;4.72;;;3.38;;
52188;SDS011;38162;45.926;13.608;2023-05-10T08:28:51;4.47;;;3.30;;
52188;SDS011;38162;45.926;13.608;2023-05-10T08:31:28;6.10;;;3.60;;
52188;SDS011;38162;45.926;13.608;2023-05-10T08:37:06;7.35;;;3.88;;
52188;SDS011;38162;45.926;13.608;2023-05-10T08:39:35;7.80;;;3.72;;
52188;SDS011;38162;45.926;13.608;2023-05-10T08:42:02;6.72;;;2.90;;
52188;SDS011;38162;45.926;13.608;2023-05-10T08:44:30;9.00;;;3.50;;
52188;SDS011;38162;45.926;13.608;2023-05-10T08:46:59;5.80;;;3.35;;
52188;SDS011;38162;45.926;13.608;2023-05-10T08:49:31;5.55;;;3.08;;
52188;SDS011;38162;45.926;13.608;2023-05-10T08:51:58;6.63;;;3.20;;
52188;SDS011;38162;45.926;13.608;2023-05-10T08:54:28;3.70;;;3.03;;
52188;SDS011;38162;45.926;13.608;2023-05-10T08:56:56;5.88;;;3.10;;
52188;SDS011;38162;45.926;13.608;2023-05-10T08:59:22;9.50;;;3.30;;
52188;SDS011;38162;45.926;13.608;2023-05-10T09:01:48;3.80;;;3.13;;
52188;SDS011;38162;45.926;13.608;2023-05-10T09:04:16;5.07;;;3.65;;
52188;SDS011;38162;45.926;13.608;2023-05-10T09:06:41;4.00;;;3.20;;
52188;SDS011;38162;45.926;13.608;2023-05-10T09:09:07;5.13;;;3.20;;
52188;SDS011;38162;45.926;13.608;2023-05-10T09:11:33;4.60;;;3.25;;
52188;SDS011;38162;45.926;13.608;2023-05-10T09:14:00;6.57;;;3.42;;
52188;SDS011;38162;45.926;13.608;2023-05-10T09:16:27;4.28;;;3.45;;
52188;SDS011;38162;45.926;13.608;2023-05-10T09:18:53;5.78;;;3.85;;
52188;SDS011;38162;45.926;13.608;2023-05-10T09:21:19;5.57;;;3.63;;
52188;SDS011;38162;45.926;13.608;2023-05-10T09:23:45;5.70;;;3.78;;
52188;SDS011;38162;45.926;13.608;2023-05-10T09:26:11;5.95;;;3.75;;
52188;SDS011;38162;45.926;13.608;2023-05-10T09:28:50;4.85;;;3.30;;
52188;SDS011;38162;45.926;13.608;2023-05-10T09:31:17;5.72;;;3.88;;
52188;SDS011;38162;45.926;13.608;2023-05-10T09:33:47;5.38;;;3.67;;
52188;SDS011;38162;45.926;13.608;2023-05-10T09:36:14;6.15;;;3.53;;
52188;SDS011;38162;45.926;13.608;2023-05-10T09:38:51;11.02;;;3.80;;
52188;SDS011;38162;45.926;13.608;2023-05-10T09:43:44;5.25;;;3.83;;
52188;SDS011;38162;45.926;13.608;2023-05-10T09:46:10;9.63;;;4.20;;
52188;SDS011;38162;45.926;13.608;2023-05-10T09:48:46;7.65;;;4.10;;
52188;SDS011;38162;45.926;13.608;2023-05-10T09:51:19;7.50;;;4.05;;
52188;SDS011;38162;45.926;13.608;2023-05-10T09:53:47;5.85;;;3.85;;
52188;SDS011;38162;45.926;13.608;2023-05-10T09:56:32;8.60;;;3.75;;
52188;SDS011;38162;45.926;13.608;2023-05-10T10:02:16;9.18;;;3.95;;
52188;SDS011;38162;45.926;13.608;2023-05-10T10:04:51;11.30;;;4.55;;
52188;SDS011;38162;45.926;13.608;2023-05-10T10:07:41;10.63;;;4.53;;
52188;SDS011;38162;45.926;13.608;2023-05-10T10:10:18;11.25;;;4.32;;
52188;SDS011;38162;45.926;13.608;2023-05-10T10:13:23;9.35;;;4.38;;
52188;SDS011;38162;45.926;13.608;2023-05-10T10:16:17;9.77;;;4.57;;
52188;SDS011;38162;45.926;13.608;2023-05-10T10:18:59;6.97;;;4.35;;
52188;SDS011;38162;45.926;13.608;2023-05-10T10:21:44;5.70;;;4.40;;
52188;SDS011;38162;45.926;13.608;2023-05-10T10:24:11;6.40;;;4.30;;
52188;SDS011;38162;45.926;13.608;2023-05-10T10:26:37;9.48;;;3.95;;
52188;SDS011;38162;45.926;13.608;2023-05-10T10:29:10;8.40;;;5.20;;
52188;SDS011;38162;45.926;13.608;2023-05-10T10:31:55;9.07;;;4.60;;
52188;SDS011;38162;45.926;13.608;2023-05-10T10:34:29;6.40;;;4.82;;
52188;SDS011;38162;45.926;13.608;2023-05-10T10:36:56;6.55;;;4.72;;
52188;SDS011;38162;45.926;13.608;2023-05-10T10:39:23;9.82;;;5.03;;
52188;SDS011;38162;45.926;13.608;2023-05-10T10:41:53;12.07;;;5.65;;
52188;SDS011;38162;45.926;13.608;2023-05-10T10:57:24;6.03;;;5.30;;
52188;SDS011;38162;45.926;13.608;2023-05-10T10:59:51;8.85;;;5.18;;
52188;SDS011;38162;45.926;13.608;2023-05-10T11:07:58;6.43;;;5.70;;
52188;SDS011;38162;45.926;13.608;2023-05-10T11:10:25;10.77;;;7.80;;
52188;SDS011;38162;45.926;13.608;2023-05-10T11:13:10;8.38;;;6.80;;
52188;SDS011;38162;45.926;13.608;2023-05-10T11:15:37;10.90;;;7.00;;
52188;SDS011;38162;45.926;13.608;2023-05-10T11:18:20;13.75;;;7.78;;
52188;SDS011;38162;45.926;13.608;2023-05-10T11:20:51;9.30;;;6.15;;
52188;SDS011;38162;45.926;13.608;2023-05-10T11:23:21;8.85;;;7.30;;
52188;SDS011;38162;45.926;13.608;2023-05-10T11:25:47;8.00;;;6.22;;
52188;SDS011;38162;45.926;13.608;2023-05-10T11:28:16;9.40;;;6.03;;
52188;SDS011;38162;45.926;13.608;2023-05-10T11:30:43;11.18;;;7.00;;
52188;SDS011;38162;45.926;13.608;2023-05-10T11:33:11;9.38;;;6.57;;
52188;SDS011;38162;45.926;13.608;2023-05-10T11:35:42;7.72;;;6.55;;
52188;SDS011;38162;45.926;13.608;2023-05-10T11:38:20;7.90;;;6.05;;
52188;SDS011;38162;45.926;13.608;2023-05-10T11:41:04;7.30;;;6.53;;
52188;SDS011;38162;45.926;13.608;2023-05-10T11:47:06;10.00;;;7.20;;
52188;SDS011;38162;45.926;13.608;2023-05-10T12:03:48;13.20;;;7.40;;
52188;SDS011;38162;45.926;13.608;2023-05-10T12:06:26;7.55;;;6.30;;
52188;SDS011;38162;45.926;13.608;2023-05-10T12:08:53;8.63;;;6.95;;
52188;SDS011;38162;45.926;13.608;2023-05-10T12:11:20;9.50;;;6.65;;
52188;SDS011;38162;45.926;13.608;2023-05-10T12:13:49;7.75;;;6.32;;
52188;SDS011;38162;45.926;13.608;2023-05-10T12:16:19;10.02;;;6.43;;
52188;SDS011;38162;45.926;13.608;2023-05-10T12:18:49;12.00;;;7.43;;
52188;SDS011;38162;45.926;13.608;2023-05-10T12:21:16;8.10;;;6.93;;
52188;SDS011;38162;45.926;13.608;2023-05-10T12:23:44;8.00;;;6.05;;
52188;SDS011;38162;45.926;13.608;2023-05-10T12:26:11;7.53;;;6.40;;
52188;SDS011;38162;45.926;13.608;2023-05-10T12:28:37;7.80;;;6.43;;
52188;SDS011;38162;45.926;13.608;2023-05-10T12:31:06;7.32;;;6.47;;
52188;SDS011;38162;45.926;13.608;2023-05-10T12:33:40;6.68;;;5.95;;
52188;SDS011;38162;45.926;13.608;2023-05-10T12:36:08;7.00;;;6.40;;
52188;SDS011;38162;45.926;13.608;2023-05-10T12:38:38;9.68;;;5.90;;
52188;SDS011;38162;45.926;13.608;2023-05-10T12:43:43;8.88;;;6.28;;
52188;SDS011;38162;45.926;13.608;2023-05-10T12:48:37;8.38;;;6.57;;
52188;SDS011;38162;45.926;13.608;2023-05-10T12:51:04;7.07;;;6.38;;
52188;SDS011;38162;45.926;13.608;2023-05-10T12:53:34;9.27;;;6.40;;
52188;SDS011;38162;45.926;13.608;2023-05-10T12:56:00;9.02;;;6.28;;
52188;SDS011;38162;45.926;13.608;2023-05-10T12:58:26;7.18;;;6.28;;
52188;SDS011;38162;45.926;13.608;2023-05-10T13:00:52;8.73;;;6.07;;
52188;SDS011;38162;45.926;13.608;2023-05-10T13:03:18;7.30;;;6.05;;
52188;SDS011;38162;45.926;13.608;2023-05-10T13:05:44;8.77;;;6.78;;
52188;SDS011;38162;45.926;13.608;2023-05-10T13:08:10;8.82;;;6.25;;
52188;SDS011;38162;45.926;13.608;2023-05-10T13:10:36;7.85;;;7.05;;
52188;SDS011;38162;45.926;13.608;2023-05-10T13:13:02;8.07;;;7.28;;
52188;SDS011;38162;45.926;13.608;2023-05-10T13:15:28;9.50;;;7.82;;
52188;SDS011;38162;45.926;13.608;2023-05-10T13:28:18;8.68;;;6.88;;
52188;SDS011;38162;45.926;13.608;2023-05-10T13:31:48;7.68;;;6.85;;
52188;SDS011;38162;45.926;13.608;2023-05-10T13:34:52;10.52;;;7.03;;
52188;SDS011;38162;45.926;13.608;2023-05-10T13:37:43;6.78;;;6.07;;
52188;SDS011;38162;45.926;13.608;2023-05-10T13:40:23;7.80;;;6.03;;
52188;SDS011;38162;45.926;13.608;2023-05-10T13:43:20;7.05;;;5.80;;
52188;SDS011;38162;45.926;13.608;2023-05-10T13:45:46;7.85;;;6.32;;
52188;SDS011;38162;45.926;13.608;2023-05-10T13:48:12;6.25;;;5.65;;
52188;SDS011;38162;45.926;13.608;2023-05-10T13:50:38;6.50;;;5.90;;
52188;SDS011;38162;45.926;13.608;2023-05-10T13:53:04;7.07;;;5.88;;
52188;SDS011;38162;45.926;13.608;2023-05-10T13:55:30;10.35;;;6.43;;
52188;SDS011;38162;45.926;13.608;2023-05-10T13:57:56;7.63;;;6.30;;
52188;SDS011;38162;45.926;13.608;2023-05-10T14:00:22;8.32;;;5.40;;
52188;SDS011;38162;45.926;13.608;2023-05-10T14:02:48;6.75;;;5.93;;
52188;SDS011;38162;45.926;13.608;2023-05-10T14:05:14;7.25;;;5.40;;
52188;SDS011;38162;45.926;13.608;2023-05-10T14:07:40;6.80;;;5.65;;
52188;SDS011;38162;45.926;13.608;2023-05-10T14:10:06;6.80;;;6.10;;
52188;SDS011;38162;45.926;13.608;2023-05-10T14:12:32;7.47;;;6.22;;
52188;SDS011;38162;45.926;13.608;2023-05-10T14:14:57;6.07;;;5.47;;
52188;SDS011;38162;45.926;13.608;2023-05-10T14:17:23;5.80;;;5.25;;
52188;SDS011;38162;45.926;13.608;2023-05-10T14:19:49;8.43;;;6.63;;
52188;SDS011;38162;45.926;13.608;2023-05-10T14:22:15;7.40;;;6.38;;
52188;SDS011;38162;45.926;13.608;2023-05-10T14:24:40;7.35;;;6.32;;
52188;SDS011;38162;45.926;13.608;2023-05-10T14:27:06;9.23;;;7.15;;
52188;SDS011;38162;45.926;13.608;2023-05-10T14:29:32;7.95;;;6.25;;
52188;SDS011;38162;45.926;13.608;2023-05-10T14:31:58;9.13;;;6.63;;
52188;SDS011;38162;45.926;13.608;2023-05-10T14:34:23;9.38;;;7.10;;
52188;SDS011;38162;45.926;13.608;2023-05-10T14:36:49;7.07;;;6.38;;
52188;SDS011;38162;45.926;13.608;2023-05-10T14:39:15;11.57;;;7.75;;
52188;SDS011;38162;45.926;13.608;2023-05-10T14:41:41;7.65;;;6.93;;
52188;SDS011;38162;45.926;13.608;2023-05-10T14:44:09;8.43;;;7.55;;
52188;SDS011;38162;45.926;13.608;2023-05-10T14:46:35;12.00;;;7.60;;
52188;SDS011;38162;45.926;13.608;2023-05-10T14:49:02;9.80;;;7.38;;
52188;SDS011;38162;45.926;13.608;2023-05-10T14:51:27;10.57;;;6.50;;
52188;SDS011;38162;45.926;13.608;2023-05-10T14:53:53;7.75;;;6.43;;
52188;SDS011;38162;45.926;13.608;2023-05-10T14:56:19;10.05;;;6.85;;
52188;SDS011;38162;45.926;13.608;2023-05-10T15:01:59;8.68;;;6.78;;
52188;SDS011;38162;45.926;13.608;2023-05-10T15:04:32;7.45;;;6.75;;
52188;SDS011;38162;45.926;13.608;2023-05-10T15:13:49;7.70;;;6.88;;
52188;SDS011;38162;45.926;13.608;2023-05-10T15:16:20;9.10;;;7.40;;
52188;SDS011;38162;45.926;13.608;2023-05-10T15:18:49;13.05;;;7.45;;
52188;SDS011;38162;45.926;13.608;2023-05-10T15:21:17;9.15;;;8.30;;
52188;SDS011;38162;45.926;13.608;2023-05-10T15:23:44;8.52;;;7.65;;
52188;SDS011;38162;45.926;13.608;2023-05-10T15:26:15;8.63;;;7.80;;
52188;SDS011;38162;45.926;13.608;2023-05-10T15:28:42;8.23;;;7.28;;
52188;SDS011;38162;45.926;13.608;2023-05-10T15:31:08;17.75;;;7.85;;
52188;SDS011;38162;45.926;13.608;2023-05-10T15:33:35;9.13;;;8.05;;
52188;SDS011;38162;45.926;13.608;2023-05-10T15:36:02;8.93;;;7.85;;
52188;SDS011;38162;45.926;13.608;2023-05-10T15:38:28;7.70;;;6.90;;
52188;SDS011;38162;45.926;13.608;2023-05-10T15:40:56;9.70;;;6.75;;
52188;SDS011;38162;45.926;13.608;2023-05-10T15:43:23;9.65;;;5.78;;
52188;SDS011;38162;45.926;13.608;2023-05-10T15:45:48;7.80;;;6.03;;
52188;SDS011;38162;45.926;13.608;2023-05-10T15:48:18;7.40;;;6.18;;
52188;SDS011;38162;45.926;13.608;2023-05-10T15:50:44;8.60;;;6.35;;
52188;SDS011;38162;45.926;13.608;2023-05-10T15:53:11;7.53;;;6.47;;
52188;SDS011;38162;45.926;13.608;2023-05-10T15:55:36;9.45;;;7.03;;
52188;SDS011;38162;45.926;13.608;2023-05-10T15:58:02;11.32;;;7.05;;
52188;SDS011;38162;45.926;13.608;2023-05-10T16:00:28;8.00;;;6.85;;
52188;SDS011;38162;45.926;13.608;2023-05-10T16:02:54;12.68;;;7.65;;
52188;SDS011;38162;45.926;13.608;2023-05-10T16:05:20;12.50;;;7.57;;
52188;SDS011;38162;45.926;13.608;2023-05-10T16:07:46;9.55;;;7.43;;
52188;SDS011;38162;45.926;13.608;2023-05-10T16:10:13;7.53;;;6.72;;
52188;SDS011;38162;45.926;13.608;2023-05-10T16:12:39;8.55;;;6.70;;
52188;SDS011;38162;45.926;13.608;2023-05-10T16:15:05;8.65;;;7.07;;
52188;SDS011;38162;45.926;13.608;2023-05-10T16:17:33;10.80;;;6.78;;
52188;SDS011;38162;45.926;13.608;2023-05-10T16:19:59;8.10;;;6.85;;
52188;SDS011;38162;45.926;13.608;2023-05-10T16:22:25;8.88;;;7.15;;
52188;SDS011;38162;45.926;13.608;2023-05-10T16:24:52;9.27;;;7.25;;
52188;SDS011;38162;45.926;13.608;2023-05-10T16:27:18;8.43;;;6.95;;
52188;SDS011;38162;45.926;13.608;2023-05-10T16:29:45;8.73;;;7.07;;
52188;SDS011;38162;45.926;13.608;2023-05-10T16:32:11;10.23;;;6.95;;
52188;SDS011;38162;45.926;13.608;2023-05-10T16:34:37;9.23;;;7.47;;
52188;SDS011;38162;45.926;13.608;2023-05-10T16:37:03;8.00;;;6.70;;
52188;SDS011;38162;45.926;13.608;2023-05-10T16:39:29;8.93;;;6.32;;
52188;SDS011;38162;45.926;13.608;2023-05-10T16:42:07;7.10;;;6.40;;
52188;SDS011;38162;45.926;13.608;2023-05-10T16:45:20;10.80;;;6.70;;
52188;SDS011;38162;45.926;13.608;2023-05-10T16:48:28;9.07;;;6.57;;
52188;SDS011;38162;45.926;13.608;2023-05-10T16:51:14;7.93;;;6.05;;
52188;SDS011;38162;45.926;13.608;2023-05-10T16:53:43;6.82;;;6.13;;
52188;SDS011;38162;45.926;13.608;2023-05-10T16:56:41;7.38;;;6.20;;
52188;SDS011;38162;45.926;13.608;2023-05-10T16:59:15;7.55;;;6.00;;
52188;SDS011;38162;45.926;13.608;2023-05-10T17:01:47;6.93;;;5.82;;
52188;SDS011;38162;45.926;13.608;2023-05-10T17:04:16;6.50;;;5.90;;
52188;SDS011;38162;45.926;13.608;2023-05-10T17:07:02;5.75;;;5.20;;